sensor_id;sensor_type;location;lat;lon;timestamp;P1;durP1;ratioP1;P2;durP2;ratioP2
65737;SDS011;52478;51.844;6.582;2023-07-20T00:02:17;8.55;;;4.55;;
65737;SDS011;52478;51.844;6.582;2023-07-20T00:04:43;11.73;;;4.82;;
65737;SDS011;52478;51.844;6.582;2023-07-20T00:07:10;9.00;;;4.38;;
65737;SDS011;52478;51.844;6.582;2023-07-20T00:09:37;8.55;;;4.10;;
65737;SDS011;52478;51.844;6.582;2023-07-20T00:12:04;9.32;;;4.10;;
65737;SDS011;52478;51.844;6.582;2023-07-20T00:14:31;8.23;;;3.92;;
65737;SDS011;52478;51.844;6.582;2023-07-20T00:16:58;11.30;;;4.85;;
65737;SDS011;52478;51.844;6.582;2023-07-20T00:19:25;10.55;;;4.38;;
65737;SDS011;52478;51.844;6.582;2023-07-20T00:21:53;8.80;;;4.30;;
65737;SDS011;52478;51.844;6.582;2023-07-20T00:24:20;8.73;;;4.60;;
65737;SDS011;52478;51.844;6.582;2023-07-20T00:26:48;7.85;;;3.80;;
65737;SDS011;52478;51.844;6.582;2023-07-20T00:29:14;9.27;;;4.25;;
65737;SDS011;52478;51.844;6.582;2023-07-20T00:31:41;9.48;;;4.10;;
65737;SDS011;52478;51.844;6.582;2023-07-20T00:34:08;8.88;;;4.50;;
65737;SDS011;52478;51.844;6.582;2023-07-20T00:36:35;7.65;;;3.63;;
65737;SDS011;52478;51.844;6.582;2023-07-20T00:39:01;8.13;;;4.70;;
65737;SDS011;52478;51.844;6.582;2023-07-20T00:41:28;8.73;;;4.63;;
65737;SDS011;52478;51.844;6.582;2023-07-20T00:43:56;10.13;;;4.65;;
65737;SDS011;52478;51.844;6.582;2023-07-20T00:46:23;9.10;;;4.68;;
65737;SDS011;52478;51.844;6.582;2023-07-20T00:48:50;9.55;;;4.85;;
65737;SDS011;52478;51.844;6.582;2023-07-20T00:51:18;8.88;;;4.75;;
65737;SDS011;52478;51.844;6.582;2023-07-20T00:53:45;9.70;;;4.90;;
65737;SDS011;52478;51.844;6.582;2023-07-20T00:56:12;11.02;;;5.25;;
65737;SDS011;52478;51.844;6.582;2023-07-20T00:58:38;8.85;;;4.82;;
65737;SDS011;52478;51.844;6.582;2023-07-20T01:01:06;9.20;;;4.70;;
65737;SDS011;52478;51.844;6.582;2023-07-20T01:03:33;12.02;;;4.82;;
65737;SDS011;52478;51.844;6.582;2023-07-20T01:06:01;8.50;;;4.72;;
65737;SDS011;52478;51.844;6.582;2023-07-20T01:08:36;11.65;;;4.88;;
65737;SDS011;52478;51.844;6.582;2023-07-20T01:11:09;10.40;;;5.03;;
65737;SDS011;52478;51.844;6.582;2023-07-20T01:13:38;8.65;;;4.53;;
65737;SDS011;52478;51.844;6.582;2023-07-20T01:16:07;9.45;;;5.05;;
65737;SDS011;52478;51.844;6.582;2023-07-20T01:18:33;9.30;;;4.32;;
65737;SDS011;52478;51.844;6.582;2023-07-20T01:21:05;12.80;;;4.40;;
65737;SDS011;52478;51.844;6.582;2023-07-20T01:26:45;9.75;;;4.75;;
65737;SDS011;52478;51.844;6.582;2023-07-20T01:29:42;8.98;;;4.57;;
65737;SDS011;52478;51.844;6.582;2023-07-20T01:32:32;10.35;;;4.60;;
65737;SDS011;52478;51.844;6.582;2023-07-20T01:34:59;9.75;;;4.78;;
65737;SDS011;52478;51.844;6.582;2023-07-20T01:37:28;9.57;;;4.57;;
65737;SDS011;52478;51.844;6.582;2023-07-20T01:39:57;9.15;;;4.25;;
65737;SDS011;52478;51.844;6.582;2023-07-20T01:42:24;9.25;;;4.07;;
65737;SDS011;52478;51.844;6.582;2023-07-20T01:44:51;9.93;;;4.45;;
65737;SDS011;52478;51.844;6.582;2023-07-20T01:47:18;9.90;;;4.22;;
65737;SDS011;52478;51.844;6.582;2023-07-20T01:49:46;7.82;;;4.40;;
65737;SDS011;52478;51.844;6.582;2023-07-20T01:52:13;11.30;;;4.07;;
65737;SDS011;52478;51.844;6.582;2023-07-20T01:57:06;9.50;;;4.30;;
65737;SDS011;52478;51.844;6.582;2023-07-20T01:59:33;7.72;;;3.72;;
65737;SDS011;52478;51.844;6.582;2023-07-20T02:01:59;7.90;;;3.88;;
65737;SDS011;52478;51.844;6.582;2023-07-20T02:04:26;8.38;;;4.30;;
65737;SDS011;52478;51.844;6.582;2023-07-20T02:06:54;10.13;;;3.70;;
65737;SDS011;52478;51.844;6.582;2023-07-20T02:09:20;9.35;;;4.07;;
65737;SDS011;52478;51.844;6.582;2023-07-20T02:11:47;7.75;;;3.72;;
65737;SDS011;52478;51.844;6.582;2023-07-20T02:14:13;10.70;;;3.95;;
65737;SDS011;52478;51.844;6.582;2023-07-20T02:16:40;8.93;;;3.60;;
65737;SDS011;52478;51.844;6.582;2023-07-20T02:19:06;8.50;;;3.75;;
65737;SDS011;52478;51.844;6.582;2023-07-20T02:21:33;7.60;;;4.07;;
65737;SDS011;52478;51.844;6.582;2023-07-20T02:24:01;7.68;;;3.72;;
65737;SDS011;52478;51.844;6.582;2023-07-20T02:26:27;7.22;;;3.50;;
65737;SDS011;52478;51.844;6.582;2023-07-20T02:28:53;6.90;;;3.35;;
65737;SDS011;52478;51.844;6.582;2023-07-20T02:31:20;7.75;;;3.58;;
65737;SDS011;52478;51.844;6.582;2023-07-20T02:33:46;11.27;;;3.92;;
65737;SDS011;52478;51.844;6.582;2023-07-20T02:36:13;9.98;;;4.05;;
65737;SDS011;52478;51.844;6.582;2023-07-20T02:38:41;9.15;;;3.95;;
65737;SDS011;52478;51.844;6.582;2023-07-20T02:41:09;9.20;;;3.97;;
65737;SDS011;52478;51.844;6.582;2023-07-20T02:43:36;7.22;;;3.25;;
65737;SDS011;52478;51.844;6.582;2023-07-20T02:46:02;7.30;;;3.40;;
65737;SDS011;52478;51.844;6.582;2023-07-20T02:48:29;8.65;;;3.80;;
65737;SDS011;52478;51.844;6.582;2023-07-20T02:50:55;9.13;;;4.20;;
65737;SDS011;52478;51.844;6.582;2023-07-20T02:53:22;9.10;;;3.42;;
65737;SDS011;52478;51.844;6.582;2023-07-20T02:55:48;8.38;;;3.63;;
65737;SDS011;52478;51.844;6.582;2023-07-20T02:58:16;7.28;;;3.60;;
65737;SDS011;52478;51.844;6.582;2023-07-20T03:00:43;7.65;;;3.55;;
65737;SDS011;52478;51.844;6.582;2023-07-20T03:03:10;6.45;;;3.25;;
65737;SDS011;52478;51.844;6.582;2023-07-20T03:05:36;7.85;;;3.63;;
65737;SDS011;52478;51.844;6.582;2023-07-20T03:08:05;7.13;;;3.50;;
65737;SDS011;52478;51.844;6.582;2023-07-20T03:10:32;7.47;;;3.72;;
65737;SDS011;52478;51.844;6.582;2023-07-20T03:12:58;8.10;;;3.55;;
65737;SDS011;52478;51.844;6.582;2023-07-20T03:15:26;6.95;;;3.30;;
65737;SDS011;52478;51.844;6.582;2023-07-20T03:17:54;8.82;;;3.88;;
65737;SDS011;52478;51.844;6.582;2023-07-20T03:20:20;7.93;;;3.50;;
65737;SDS011;52478;51.844;6.582;2023-07-20T03:22:47;7.07;;;3.45;;
65737;SDS011;52478;51.844;6.582;2023-07-20T03:25:13;7.22;;;3.50;;
65737;SDS011;52478;51.844;6.582;2023-07-20T03:27:40;8.07;;;3.58;;
65737;SDS011;52478;51.844;6.582;2023-07-20T03:30:07;8.40;;;3.50;;
65737;SDS011;52478;51.844;6.582;2023-07-20T03:32:36;6.93;;;3.70;;
65737;SDS011;52478;51.844;6.582;2023-07-20T03:35:02;7.68;;;4.07;;
65737;SDS011;52478;51.844;6.582;2023-07-20T03:44:49;6.80;;;3.50;;
65737;SDS011;52478;51.844;6.582;2023-07-20T03:47:15;6.32;;;3.15;;
65737;SDS011;52478;51.844;6.582;2023-07-20T03:49:43;6.28;;;3.00;;
65737;SDS011;52478;51.844;6.582;2023-07-20T03:52:10;6.97;;;3.00;;
65737;SDS011;52478;51.844;6.582;2023-07-20T03:54:36;6.20;;;2.90;;
65737;SDS011;52478;51.844;6.582;2023-07-20T03:57:03;6.18;;;2.95;;
65737;SDS011;52478;51.844;6.582;2023-07-20T03:59:30;6.57;;;2.53;;
65737;SDS011;52478;51.844;6.582;2023-07-20T04:01:56;6.35;;;2.45;;
65737;SDS011;52478;51.844;6.582;2023-07-20T04:04:23;6.10;;;2.60;;
65737;SDS011;52478;51.844;6.582;2023-07-20T04:06:51;6.25;;;2.45;;
65737;SDS011;52478;51.844;6.582;2023-07-20T04:09:17;6.60;;;2.47;;
65737;SDS011;52478;51.844;6.582;2023-07-20T04:11:44;6.03;;;2.33;;
65737;SDS011;52478;51.844;6.582;2023-07-20T04:14:10;6.15;;;2.22;;
65737;SDS011;52478;51.844;6.582;2023-07-20T04:16:37;5.75;;;2.30;;
65737;SDS011;52478;51.844;6.582;2023-07-20T04:19:03;7.45;;;2.55;;
65737;SDS011;52478;51.844;6.582;2023-07-20T04:21:30;6.50;;;2.20;;
65737;SDS011;52478;51.844;6.582;2023-07-20T04:23:58;6.85;;;2.40;;
65737;SDS011;52478;51.844;6.582;2023-07-20T04:26:24;5.47;;;2.00;;
65737;SDS011;52478;51.844;6.582;2023-07-20T04:28:51;5.40;;;2.30;;
65737;SDS011;52478;51.844;6.582;2023-07-20T04:31:17;7.20;;;2.35;;
65737;SDS011;52478;51.844;6.582;2023-07-20T04:33:44;5.38;;;2.30;;
65737;SDS011;52478;51.844;6.582;2023-07-20T04:36:10;4.97;;;2.13;;
65737;SDS011;52478;51.844;6.582;2023-07-20T04:38:38;6.72;;;2.45;;
65737;SDS011;52478;51.844;6.582;2023-07-20T04:41:06;5.72;;;2.03;;
65737;SDS011;52478;51.844;6.582;2023-07-20T04:43:33;5.10;;;2.22;;
65737;SDS011;52478;51.844;6.582;2023-07-20T04:45:59;5.40;;;2.30;;
65737;SDS011;52478;51.844;6.582;2023-07-20T04:48:26;6.10;;;2.47;;
65737;SDS011;52478;51.844;6.582;2023-07-20T04:50:52;7.95;;;2.70;;
65737;SDS011;52478;51.844;6.582;2023-07-20T04:53:20;6.20;;;2.35;;
65737;SDS011;52478;51.844;6.582;2023-07-20T04:55:48;7.18;;;2.13;;
65737;SDS011;52478;51.844;6.582;2023-07-20T04:58:18;5.70;;;2.10;;
65737;SDS011;52478;51.844;6.582;2023-07-20T05:00:45;5.47;;;2.17;;
65737;SDS011;52478;51.844;6.582;2023-07-20T05:03:11;5.20;;;2.20;;
65737;SDS011;52478;51.844;6.582;2023-07-20T05:05:38;6.47;;;2.22;;
65737;SDS011;52478;51.844;6.582;2023-07-20T05:08:04;5.05;;;2.00;;
65737;SDS011;52478;51.844;6.582;2023-07-20T05:10:31;7.15;;;2.60;;
65737;SDS011;52478;51.844;6.582;2023-07-20T05:12:58;6.75;;;2.13;;
65737;SDS011;52478;51.844;6.582;2023-07-20T05:15:26;5.75;;;2.30;;
65737;SDS011;52478;51.844;6.582;2023-07-20T05:17:52;5.60;;;2.20;;
65737;SDS011;52478;51.844;6.582;2023-07-20T05:20:19;5.70;;;2.20;;
65737;SDS011;52478;51.844;6.582;2023-07-20T05:22:46;5.82;;;2.67;;
65737;SDS011;52478;51.844;6.582;2023-07-20T05:25:12;5.60;;;2.35;;
65737;SDS011;52478;51.844;6.582;2023-07-20T05:27:42;5.85;;;2.30;;
65737;SDS011;52478;51.844;6.582;2023-07-20T05:30:09;6.53;;;2.13;;
65737;SDS011;52478;51.844;6.582;2023-07-20T05:32:37;5.70;;;1.92;;
65737;SDS011;52478;51.844;6.582;2023-07-20T05:35:04;5.07;;;2.30;;
65737;SDS011;52478;51.844;6.582;2023-07-20T05:37:31;4.82;;;1.80;;
65737;SDS011;52478;51.844;6.582;2023-07-20T05:39:57;6.13;;;2.10;;
65737;SDS011;52478;51.844;6.582;2023-07-20T05:42:24;6.10;;;2.13;;
65737;SDS011;52478;51.844;6.582;2023-07-20T05:44:51;5.00;;;2.00;;
65737;SDS011;52478;51.844;6.582;2023-07-20T05:47:18;6.32;;;2.20;;
65737;SDS011;52478;51.844;6.582;2023-07-20T05:49:45;5.70;;;2.20;;
65737;SDS011;52478;51.844;6.582;2023-07-20T05:52:13;5.70;;;2.10;;
65737;SDS011;52478;51.844;6.582;2023-07-20T06:01:58;6.20;;;2.35;;
65737;SDS011;52478;51.844;6.582;2023-07-20T06:04:25;5.45;;;1.88;;
65737;SDS011;52478;51.844;6.582;2023-07-20T06:06:53;5.82;;;1.90;;
65737;SDS011;52478;51.844;6.582;2023-07-20T06:09:19;6.22;;;1.40;;
65737;SDS011;52478;51.844;6.582;2023-07-20T06:11:46;5.28;;;1.83;;
65737;SDS011;52478;51.844;6.582;2023-07-20T06:14:12;6.13;;;1.70;;
65737;SDS011;52478;51.844;6.582;2023-07-20T06:16:39;9.13;;;1.70;;
65737;SDS011;52478;51.844;6.582;2023-07-20T06:19:05;5.82;;;1.85;;
65737;SDS011;52478;51.844;6.582;2023-07-20T06:21:32;5.07;;;1.77;;
65737;SDS011;52478;51.844;6.582;2023-07-20T06:23:59;4.97;;;2.00;;
65737;SDS011;52478;51.844;6.582;2023-07-20T06:26:26;5.55;;;1.75;;
65737;SDS011;52478;51.844;6.582;2023-07-20T06:31:20;4.43;;;1.40;;
65737;SDS011;52478;51.844;6.582;2023-07-20T06:33:46;3.72;;;1.30;;
65737;SDS011;52478;51.844;6.582;2023-07-20T06:36:12;3.60;;;1.20;;
65737;SDS011;52478;51.844;6.582;2023-07-20T06:38:39;3.92;;;1.23;;
65737;SDS011;52478;51.844;6.582;2023-07-20T06:41:07;3.78;;;1.25;;
65737;SDS011;52478;51.844;6.582;2023-07-20T06:43:33;5.03;;;1.60;;
65737;SDS011;52478;51.844;6.582;2023-07-20T06:46:00;3.45;;;1.23;;
65737;SDS011;52478;51.844;6.582;2023-07-20T06:48:26;4.85;;;1.70;;
65737;SDS011;52478;51.844;6.582;2023-07-20T06:50:53;5.13;;;1.50;;
65737;SDS011;52478;51.844;6.582;2023-07-20T06:53:19;5.03;;;1.30;;
65737;SDS011;52478;51.844;6.582;2023-07-20T06:55:46;4.28;;;1.45;;
65737;SDS011;52478;51.844;6.582;2023-07-20T06:58:14;3.70;;;1.23;;
65737;SDS011;52478;51.844;6.582;2023-07-20T07:00:40;5.65;;;1.25;;
65737;SDS011;52478;51.844;6.582;2023-07-20T07:03:07;7.07;;;2.38;;
65737;SDS011;52478;51.844;6.582;2023-07-20T07:05:35;4.47;;;1.23;;
65737;SDS011;52478;51.844;6.582;2023-07-20T07:08:02;4.00;;;1.25;;
65737;SDS011;52478;51.844;6.582;2023-07-20T07:10:29;3.95;;;1.38;;
65737;SDS011;52478;51.844;6.582;2023-07-20T07:12:55;3.78;;;1.23;;
65737;SDS011;52478;51.844;6.582;2023-07-20T07:15:23;5.45;;;1.23;;
65737;SDS011;52478;51.844;6.582;2023-07-20T07:17:50;3.95;;;1.30;;
65737;SDS011;52478;51.844;6.582;2023-07-20T07:20:17;3.55;;;1.23;;
65737;SDS011;52478;51.844;6.582;2023-07-20T07:22:43;4.40;;;1.33;;
65737;SDS011;52478;51.844;6.582;2023-07-20T07:25:11;3.50;;;1.30;;
65737;SDS011;52478;51.844;6.582;2023-07-20T07:27:38;4.35;;;1.30;;
65737;SDS011;52478;51.844;6.582;2023-07-20T07:30:05;4.40;;;1.23;;
65737;SDS011;52478;51.844;6.582;2023-07-20T07:32:33;4.90;;;1.40;;
65737;SDS011;52478;51.844;6.582;2023-07-20T07:35:00;4.70;;;1.58;;
65737;SDS011;52478;51.844;6.582;2023-07-20T07:37:26;4.30;;;1.30;;
65737;SDS011;52478;51.844;6.582;2023-07-20T07:39:53;4.80;;;1.40;;
65737;SDS011;52478;51.844;6.582;2023-07-20T07:42:19;5.75;;;1.58;;
65737;SDS011;52478;51.844;6.582;2023-07-20T07:44:45;4.80;;;1.42;;
65737;SDS011;52478;51.844;6.582;2023-07-20T07:47:12;4.43;;;1.48;;
65737;SDS011;52478;51.844;6.582;2023-07-20T07:49:40;5.85;;;1.60;;
65737;SDS011;52478;51.844;6.582;2023-07-20T07:52:07;4.20;;;1.30;;
65737;SDS011;52478;51.844;6.582;2023-07-20T07:54:33;4.82;;;1.52;;
65737;SDS011;52478;51.844;6.582;2023-07-20T07:57:00;5.97;;;1.40;;
65737;SDS011;52478;51.844;6.582;2023-07-20T07:59:27;8.63;;;1.48;;
65737;SDS011;52478;51.844;6.582;2023-07-20T08:01:53;5.25;;;1.60;;
65737;SDS011;52478;51.844;6.582;2023-07-20T08:04:19;6.47;;;1.60;;
65737;SDS011;52478;51.844;6.582;2023-07-20T08:06:47;4.25;;;1.20;;
65737;SDS011;52478;51.844;6.582;2023-07-20T08:09:14;6.50;;;1.30;;
65737;SDS011;52478;51.844;6.582;2023-07-20T08:11:40;4.50;;;1.20;;
65737;SDS011;52478;51.844;6.582;2023-07-20T08:14:07;4.28;;;1.30;;
65737;SDS011;52478;51.844;6.582;2023-07-20T08:16:33;3.65;;;1.13;;
65737;SDS011;52478;51.844;6.582;2023-07-20T08:19:00;4.63;;;1.23;;
65737;SDS011;52478;51.844;6.582;2023-07-20T08:21:27;3.50;;;1.10;;
65737;SDS011;52478;51.844;6.582;2023-07-20T08:23:55;3.58;;;1.27;;
65737;SDS011;52478;51.844;6.582;2023-07-20T08:26:22;3.75;;;1.35;;
65737;SDS011;52478;51.844;6.582;2023-07-20T08:28:49;4.18;;;1.60;;
65737;SDS011;52478;51.844;6.582;2023-07-20T08:31:15;3.97;;;1.30;;
65737;SDS011;52478;51.844;6.582;2023-07-20T08:33:42;4.53;;;1.58;;
65737;SDS011;52478;51.844;6.582;2023-07-20T08:36:09;3.55;;;1.10;;
65737;SDS011;52478;51.844;6.582;2023-07-20T08:38:35;3.03;;;1.15;;
65737;SDS011;52478;51.844;6.582;2023-07-20T08:41:03;4.95;;;1.50;;
65737;SDS011;52478;51.844;6.582;2023-07-20T08:43:29;5.25;;;1.33;;
65737;SDS011;52478;51.844;6.582;2023-07-20T08:45:57;4.13;;;1.27;;
65737;SDS011;52478;51.844;6.582;2023-07-20T08:48:24;4.25;;;1.20;;
65737;SDS011;52478;51.844;6.582;2023-07-20T08:50:53;3.47;;;1.23;;
65737;SDS011;52478;51.844;6.582;2023-07-20T08:53:21;3.53;;;1.20;;
65737;SDS011;52478;51.844;6.582;2023-07-20T08:55:48;4.60;;;1.42;;
65737;SDS011;52478;51.844;6.582;2023-07-20T08:58:17;3.78;;;1.20;;
65737;SDS011;52478;51.844;6.582;2023-07-20T09:00:44;3.65;;;1.20;;
65737;SDS011;52478;51.844;6.582;2023-07-20T09:03:11;4.55;;;1.30;;
65737;SDS011;52478;51.844;6.582;2023-07-20T09:05:38;4.65;;;1.30;;
65737;SDS011;52478;51.844;6.582;2023-07-20T09:08:05;3.65;;;1.10;;
65737;SDS011;52478;51.844;6.582;2023-07-20T09:10:32;4.03;;;1.25;;
65737;SDS011;52478;51.844;6.582;2023-07-20T09:12:58;6.15;;;1.50;;
65737;SDS011;52478;51.844;6.582;2023-07-20T09:15:26;4.80;;;2.00;;
65737;SDS011;52478;51.844;6.582;2023-07-20T09:17:54;4.97;;;1.83;;
65737;SDS011;52478;51.844;6.582;2023-07-20T09:20:21;5.05;;;1.60;;
65737;SDS011;52478;51.844;6.582;2023-07-20T09:22:48;3.55;;;1.40;;
65737;SDS011;52478;51.844;6.582;2023-07-20T09:25:16;4.75;;;1.30;;
65737;SDS011;52478;51.844;6.582;2023-07-20T09:27:46;4.35;;;1.40;;
65737;SDS011;52478;51.844;6.582;2023-07-20T09:30:14;4.43;;;1.35;;
65737;SDS011;52478;51.844;6.582;2023-07-20T09:32:43;7.22;;;1.50;;
65737;SDS011;52478;51.844;6.582;2023-07-20T09:35:14;5.38;;;1.50;;
65737;SDS011;52478;51.844;6.582;2023-07-20T09:37:45;7.45;;;1.73;;
65737;SDS011;52478;51.844;6.582;2023-07-20T09:40:14;6.47;;;1.27;;
65737;SDS011;52478;51.844;6.582;2023-07-20T09:42:43;4.07;;;1.30;;
65737;SDS011;52478;51.844;6.582;2023-07-20T09:45:10;4.97;;;1.48;;
65737;SDS011;52478;51.844;6.582;2023-07-20T09:47:37;4.82;;;1.23;;
65737;SDS011;52478;51.844;6.582;2023-07-20T09:50:06;4.45;;;1.20;;
65737;SDS011;52478;51.844;6.582;2023-07-20T09:52:35;4.03;;;1.20;;
65737;SDS011;52478;51.844;6.582;2023-07-20T09:55:04;5.03;;;1.45;;
65737;SDS011;52478;51.844;6.582;2023-07-20T09:57:32;4.15;;;1.23;;
65737;SDS011;52478;51.844;6.582;2023-07-20T09:59:59;4.40;;;1.40;;
65737;SDS011;52478;51.844;6.582;2023-07-20T10:02:28;5.00;;;1.23;;
65737;SDS011;52478;51.844;6.582;2023-07-20T10:05:00;3.78;;;1.20;;
65737;SDS011;52478;51.844;6.582;2023-07-20T10:07:30;5.30;;;1.20;;
65737;SDS011;52478;51.844;6.582;2023-07-20T10:09:59;4.90;;;1.30;;
65737;SDS011;52478;51.844;6.582;2023-07-20T10:12:28;3.33;;;1.00;;
65737;SDS011;52478;51.844;6.582;2023-07-20T10:14:58;4.85;;;1.20;;
65737;SDS011;52478;51.844;6.582;2023-07-20T10:17:28;4.00;;;1.10;;
65737;SDS011;52478;51.844;6.582;2023-07-20T10:19:54;3.88;;;1.05;;
65737;SDS011;52478;51.844;6.582;2023-07-20T10:22:28;4.80;;;1.10;;
65737;SDS011;52478;51.844;6.582;2023-07-20T10:25:01;3.90;;;1.10;;
65737;SDS011;52478;51.844;6.582;2023-07-20T10:27:29;3.85;;;1.20;;
65737;SDS011;52478;51.844;6.582;2023-07-20T10:29:56;4.10;;;1.10;;
65737;SDS011;52478;51.844;6.582;2023-07-20T10:32:25;3.20;;;1.20;;
65737;SDS011;52478;51.844;6.582;2023-07-20T10:34:52;3.53;;;1.05;;
65737;SDS011;52478;51.844;6.582;2023-07-20T10:40:28;3.15;;;1.13;;
65737;SDS011;52478;51.844;6.582;2023-07-20T10:42:57;18.58;;;3.92;;
65737;SDS011;52478;51.844;6.582;2023-07-20T10:45:39;10.30;;;2.38;;
65737;SDS011;52478;51.844;6.582;2023-07-20T10:48:13;3.25;;;1.10;;
65737;SDS011;52478;51.844;6.582;2023-07-20T10:50:40;4.30;;;1.13;;
65737;SDS011;52478;51.844;6.582;2023-07-20T10:55:40;6.50;;;1.13;;
65737;SDS011;52478;51.844;6.582;2023-07-20T10:58:09;3.92;;;1.00;;
65737;SDS011;52478;51.844;6.582;2023-07-20T11:00:37;4.65;;;1.45;;
65737;SDS011;52478;51.844;6.582;2023-07-20T11:03:04;3.95;;;1.20;;
65737;SDS011;52478;51.844;6.582;2023-07-20T11:05:34;3.63;;;1.10;;
65737;SDS011;52478;51.844;6.582;2023-07-20T11:08:05;4.30;;;1.25;;
65737;SDS011;52478;51.844;6.582;2023-07-20T11:10:36;3.42;;;1.10;;
65737;SDS011;52478;51.844;6.582;2023-07-20T11:13:15;3.15;;;1.10;;
65737;SDS011;52478;51.844;6.582;2023-07-20T11:15:45;3.67;;;1.10;;
65737;SDS011;52478;51.844;6.582;2023-07-20T11:18:13;4.40;;;1.23;;
65737;SDS011;52478;51.844;6.582;2023-07-20T11:20:40;3.83;;;1.15;;
65737;SDS011;52478;51.844;6.582;2023-07-20T11:25:39;6.20;;;1.40;;
65737;SDS011;52478;51.844;6.582;2023-07-20T11:28:08;4.07;;;1.17;;
65737;SDS011;52478;51.844;6.582;2023-07-20T11:30:36;3.53;;;1.10;;
65737;SDS011;52478;51.844;6.582;2023-07-20T11:33:03;3.38;;;1.02;;
65737;SDS011;52478;51.844;6.582;2023-07-20T11:37:57;3.47;;;1.10;;
65737;SDS011;52478;51.844;6.582;2023-07-20T11:40:23;4.00;;;1.02;;
65737;SDS011;52478;51.844;6.582;2023-07-20T11:42:51;3.53;;;1.00;;
65737;SDS011;52478;51.844;6.582;2023-07-20T11:45:19;3.53;;;1.13;;
65737;SDS011;52478;51.844;6.582;2023-07-20T11:47:46;2.25;;;0.90;;
65737;SDS011;52478;51.844;6.582;2023-07-20T11:50:12;3.78;;;1.30;;
65737;SDS011;52478;51.844;6.582;2023-07-20T11:52:39;4.30;;;1.00;;
65737;SDS011;52478;51.844;6.582;2023-07-20T11:55:06;3.30;;;1.17;;
65737;SDS011;52478;51.844;6.582;2023-07-20T11:57:33;2.80;;;1.00;;
65737;SDS011;52478;51.844;6.582;2023-07-20T12:00:02;6.25;;;1.15;;
65737;SDS011;52478;51.844;6.582;2023-07-20T12:02:34;3.50;;;1.20;;
65737;SDS011;52478;51.844;6.582;2023-07-20T12:05:01;3.60;;;1.10;;
65737;SDS011;52478;51.844;6.582;2023-07-20T12:07:29;3.10;;;1.10;;
65737;SDS011;52478;51.844;6.582;2023-07-20T12:10:05;3.97;;;0.98;;
65737;SDS011;52478;51.844;6.582;2023-07-20T12:12:33;3.35;;;1.00;;
65737;SDS011;52478;51.844;6.582;2023-07-20T12:15:16;5.43;;;1.23;;
65737;SDS011;52478;51.844;6.582;2023-07-20T12:17:46;3.58;;;1.10;;
65737;SDS011;52478;51.844;6.582;2023-07-20T12:20:24;2.92;;;1.00;;
65737;SDS011;52478;51.844;6.582;2023-07-20T12:22:51;3.58;;;1.20;;
65737;SDS011;52478;51.844;6.582;2023-07-20T12:25:18;4.15;;;1.13;;
65737;SDS011;52478;51.844;6.582;2023-07-20T12:27:45;4.32;;;1.15;;
65737;SDS011;52478;51.844;6.582;2023-07-20T12:30:12;4.50;;;1.20;;
65737;SDS011;52478;51.844;6.582;2023-07-20T12:35:07;3.85;;;1.08;;
65737;SDS011;52478;51.844;6.582;2023-07-20T12:40:00;3.00;;;0.98;;
65737;SDS011;52478;51.844;6.582;2023-07-20T12:42:29;4.40;;;1.27;;
65737;SDS011;52478;51.844;6.582;2023-07-20T12:44:55;3.97;;;1.20;;
65737;SDS011;52478;51.844;6.582;2023-07-20T12:47:22;3.28;;;1.13;;
65737;SDS011;52478;51.844;6.582;2023-07-20T12:49:50;3.40;;;1.17;;
65737;SDS011;52478;51.844;6.582;2023-07-20T12:52:16;3.53;;;1.02;;
65737;SDS011;52478;51.844;6.582;2023-07-20T12:54:43;3.55;;;1.00;;
65737;SDS011;52478;51.844;6.582;2023-07-20T12:57:09;4.05;;;1.10;;
65737;SDS011;52478;51.844;6.582;2023-07-20T12:59:36;3.53;;;1.25;;
65737;SDS011;52478;51.844;6.582;2023-07-20T13:02:02;4.47;;;1.20;;
65737;SDS011;52478;51.844;6.582;2023-07-20T13:04:29;3.63;;;1.20;;
65737;SDS011;52478;51.844;6.582;2023-07-20T13:06:57;4.22;;;1.13;;
65737;SDS011;52478;51.844;6.582;2023-07-20T13:09:24;3.80;;;1.42;;
65737;SDS011;52478;51.844;6.582;2023-07-20T13:11:51;3.95;;;1.08;;
65737;SDS011;52478;51.844;6.582;2023-07-20T13:14:18;3.80;;;1.13;;
65737;SDS011;52478;51.844;6.582;2023-07-20T13:16:44;3.30;;;1.10;;
65737;SDS011;52478;51.844;6.582;2023-07-20T13:19:10;3.85;;;1.00;;
65737;SDS011;52478;51.844;6.582;2023-07-20T13:21:37;5.20;;;1.35;;
65737;SDS011;52478;51.844;6.582;2023-07-20T13:24:05;3.92;;;1.25;;
65737;SDS011;52478;51.844;6.582;2023-07-20T13:26:32;3.70;;;1.10;;
65737;SDS011;52478;51.844;6.582;2023-07-20T13:28:58;3.67;;;1.10;;
65737;SDS011;52478;51.844;6.582;2023-07-20T13:31:25;3.95;;;1.20;;
65737;SDS011;52478;51.844;6.582;2023-07-20T13:33:51;2.85;;;1.15;;
65737;SDS011;52478;51.844;6.582;2023-07-20T13:38:45;4.28;;;1.30;;
65737;SDS011;52478;51.844;6.582;2023-07-20T13:41:14;3.55;;;1.15;;
65737;SDS011;52478;51.844;6.582;2023-07-20T13:43:41;4.50;;;1.23;;
65737;SDS011;52478;51.844;6.582;2023-07-20T13:46:07;3.53;;;1.00;;
65737;SDS011;52478;51.844;6.582;2023-07-20T13:48:34;3.42;;;1.13;;
65737;SDS011;52478;51.844;6.582;2023-07-20T13:51:00;5.20;;;1.20;;
65737;SDS011;52478;51.844;6.582;2023-07-20T13:53:27;4.57;;;1.30;;
65737;SDS011;52478;51.844;6.582;2023-07-20T13:55:53;6.13;;;1.20;;
65737;SDS011;52478;51.844;6.582;2023-07-20T13:58:24;9.07;;;1.40;;
65737;SDS011;52478;51.844;6.582;2023-07-20T14:00:51;4.70;;;1.23;;
65737;SDS011;52478;51.844;6.582;2023-07-20T14:03:17;4.88;;;1.10;;
65737;SDS011;52478;51.844;6.582;2023-07-20T14:05:44;5.85;;;1.30;;
65737;SDS011;52478;51.844;6.582;2023-07-20T14:08:11;4.25;;;1.15;;
65737;SDS011;52478;51.844;6.582;2023-07-20T14:10:37;4.18;;;1.83;;
65737;SDS011;52478;51.844;6.582;2023-07-20T14:13:04;4.50;;;1.13;;
65737;SDS011;52478;51.844;6.582;2023-07-20T14:15:32;4.18;;;1.30;;
65737;SDS011;52478;51.844;6.582;2023-07-20T14:17:59;3.17;;;1.10;;
65737;SDS011;52478;51.844;6.582;2023-07-20T14:20:26;4.13;;;1.63;;
65737;SDS011;52478;51.844;6.582;2023-07-20T14:22:52;3.78;;;1.30;;
65737;SDS011;52478;51.844;6.582;2023-07-20T14:25:19;4.07;;;1.20;;
65737;SDS011;52478;51.844;6.582;2023-07-20T14:27:45;3.88;;;1.20;;
65737;SDS011;52478;51.844;6.582;2023-07-20T14:30:12;5.60;;;1.33;;
65737;SDS011;52478;51.844;6.582;2023-07-20T14:32:40;5.18;;;1.30;;
65737;SDS011;52478;51.844;6.582;2023-07-20T14:35:07;5.07;;;1.63;;
65737;SDS011;52478;51.844;6.582;2023-07-20T14:37:34;5.97;;;1.13;;
65737;SDS011;52478;51.844;6.582;2023-07-20T14:40:00;5.00;;;1.42;;
65737;SDS011;52478;51.844;6.582;2023-07-20T14:42:30;4.07;;;1.13;;
65737;SDS011;52478;51.844;6.582;2023-07-20T14:44:57;4.03;;;1.35;;
65737;SDS011;52478;51.844;6.582;2023-07-20T14:47:23;4.25;;;1.27;;
65737;SDS011;52478;51.844;6.582;2023-07-20T14:49:51;4.00;;;1.30;;
65737;SDS011;52478;51.844;6.582;2023-07-20T14:52:18;3.90;;;1.30;;
65737;SDS011;52478;51.844;6.582;2023-07-20T14:54:44;4.13;;;1.10;;
65737;SDS011;52478;51.844;6.582;2023-07-20T14:57:11;3.30;;;1.23;;
65737;SDS011;52478;51.844;6.582;2023-07-20T14:59:39;4.78;;;1.30;;
65737;SDS011;52478;51.844;6.582;2023-07-20T15:02:06;4.53;;;1.30;;
65737;SDS011;52478;51.844;6.582;2023-07-20T15:04:33;3.15;;;1.20;;
65737;SDS011;52478;51.844;6.582;2023-07-20T15:07:01;4.20;;;1.20;;
65737;SDS011;52478;51.844;6.582;2023-07-20T15:09:28;4.00;;;1.10;;
65737;SDS011;52478;51.844;6.582;2023-07-20T15:11:54;3.75;;;1.13;;
65737;SDS011;52478;51.844;6.582;2023-07-20T15:14:21;3.35;;;1.20;;
65737;SDS011;52478;51.844;6.582;2023-07-20T15:16:47;4.03;;;1.23;;
65737;SDS011;52478;51.844;6.582;2023-07-20T15:19:13;5.35;;;1.40;;
65737;SDS011;52478;51.844;6.582;2023-07-20T15:21:41;3.40;;;1.13;;
65737;SDS011;52478;51.844;6.582;2023-07-20T15:24:09;4.18;;;1.20;;
65737;SDS011;52478;51.844;6.582;2023-07-20T15:26:35;3.22;;;1.08;;
65737;SDS011;52478;51.844;6.582;2023-07-20T15:29:02;2.83;;;1.02;;
65737;SDS011;52478;51.844;6.582;2023-07-20T15:31:28;5.72;;;1.40;;